Hoolehua, HI

7:26 PM HST on May 22, 2015 (GMT -1000)
Molokai | | Change Station
CLOSE
Current Station
Airport
Location: Molokai,
Elevation: 449 ft
Nearby Weather Stations

Elev 449 ft 21.15 °N, 157.10 °W | Updated 32 minutes ago

Mostly Cloudy
Mostly Cloudy
73 °F
Feels Like 73 °F
N
8
Wind Variable Wind from North

Today
High -- | Low -- °F
--% Chance of Precip.
Yesterday
High -- | Low -- °F
Precip. -- in
5:48 AM 7:02 PM
Waxing Crescent, 27% visible
Pressure 30.00 in
Visibility 10.0 miles
Clouds Few 1800 ft
Mostly Cloudy 4400 ft
Mostly Cloudy 8000 ft
Dew Point 66 °F
Humidity 79%
Rainfall 0.00 in
Snow Depth Not available.
UV 0 out of 12
Pollen Not available.
Air Quality Not available.
Flu Activity Local Activity
METAR PHMK 230454Z AUTO 36007KT 10SM FEW018 BKN044 BKN080 23/19 A2999 RMK AO2 SLP159 T02280189 TSNO

More Conditions Fewer Conditions

Pressure 30.00 in
Visibility 10.0 miles
Clouds Few 1800 ft
Mostly Cloudy 4400 ft
Mostly Cloudy 8000 ft
Dew Point 66 °F
Humidity 79%
Rainfall 0.00 in
Snow Depth Not available.
UV 0 out of 12
Pollen Not available.
Air Quality Not available.
Flu Activity Local Activity
METAR PHMK 230454Z AUTO 36007KT 10SM FEW018 BKN044 BKN080 23/19 A2999 RMK AO2 SLP159 T02280189 TSNO

More Conditions Fewer Conditions

10-Day Weather Forecast

Almanac

Astronomy

May. 22, 2015 Rise Set
Actual Time
Civil Twilight
Nautical Twilight
Astronomical Twilight
Moon
Length of Visible Light
Length of Day
Tomorrow will be .
, % of the Moon is Illuminated

Today's Extremes

State Highs State Lows

Community

WunderPhotos

Upload Photos

1,823,392 photos uploaded!

WunderBlogs® & News

Nearby

Air Quality

  Air Quality AQ Index Pollutant
Not available.

Snow Depth

Station Depth Elevation

Earthquake Activity

City Distance Mag. Time & Date
Minimum magnitude displayed is 2.5.

Coastal Water Temperatures

Place Temperature

Stations

Nearby Weather Stations

Station Location Temp. Windchill Dew Point Humidity Wind Precip. Elev Updated Type